Time;durP1;ratioP1;P1;durP2;ratioP2;P2;SDS_P1;SDS_P2;PMS_P1;PMS_P2;Temp;Humidity;BMP_temperature;BMP_pressure;BME280_temperature;BME280_humidity;BME280_pressure;Samples;Min_cycle;Max_cycle;Signal;HPM_P1;HPM_P2
2022/05/27 00:00:15;;;;;;;2.60;1.50;;;;;;;22.54;46.11;100005.47;4455098;32;31680;-61
2022/05/27 00:02:45;;;;;;;2.60;1.30;;;;;;;22.54;46.04;100002.72;4445495;32;33942;-62
2022/05/27 00:05:14;;;;;;;3.35;1.60;;;;;;;22.63;45.81;100002.63;4438759;32;33872;-62
2022/05/27 00:07:42;;;;;;;3.83;1.65;;;;;;;22.65;45.70;99995.13;4439490;32;33797;-64
2022/05/27 00:10:11;;;;;;;4.60;1.58;;;;;;;22.64;45.68;99998.88;4449922;32;34209;-66
2022/05/27 00:12:39;;;;;;;3.37;1.52;;;;;;;22.67;45.51;99993.06;4442713;32;34320;-64
2022/05/27 00:15:07;;;;;;;3.67;1.60;;;;;;;22.79;45.32;99991.53;4453493;32;35225;-62
2022/05/27 00:17:36;;;;;;;2.65;1.30;;;;;;;22.79;45.03;99984.22;4447436;32;34929;-62
2022/05/27 00:20:04;;;;;;;2.60;1.30;;;;;;;22.75;45.21;99974.69;4453755;32;34459;-63
2022/05/27 00:22:31;;;;;;;4.25;1.55;;;;;;;22.89;45.07;99978.47;4447169;32;33808;-64
2022/05/27 00:24:59;;;;;;;2.67;1.40;;;;;;;22.91;45.04;99970.94;4445344;32;33385;-65
2022/05/27 00:27:27;;;;;;;4.00;1.40;;;;;;;22.94;45.51;99965.13;4448894;32;34891;-66
2022/05/27 00:29:54;;;;;;;3.08;1.48;;;;;;;22.66;46.34;99961.34;4445972;32;33720;-64
2022/05/27 00:32:30;;;;;;;3.65;1.45;;;;;;;22.67;46.44;99961.16;4447877;32;34896;-62
2022/05/27 00:34:57;;;;;;;3.25;1.62;;;;;;;22.82;45.92;99969.31;4452432;32;33761;-62
2022/05/27 00:37:26;;;;;;;3.17;1.55;;;;;;;22.82;46.03;99965.75;4449134;32;34838;-63
2022/05/27 00:39:56;;;;;;;3.15;1.40;;;;;;;22.88;45.92;99960.38;4448193;32;34291;-66
2022/05/27 00:42:24;;;;;;;3.90;1.50;;;;;;;23.00;45.85;99967.09;4445406;32;33739;-62
2022/05/27 00:44:51;;;;;;;3.58;1.77;;;;;;;23.00;45.79;99961.63;4447926;32;34147;-62
2022/05/27 00:47:23;;;;;;;3.60;1.60;;;;;;;23.02;45.84;99961.47;4450451;32;33746;-64
2022/05/27 00:49:58;;;;;;;3.75;1.62;;;;;;;22.77;46.08;99958.16;4451879;32;32383;-65
2022/05/27 00:52:31;;;;;;;3.87;1.70;;;;;;;22.68;46.23;99965.56;4434887;32;33413;-63
2022/05/27 00:55:01;;;;;;;4.12;1.50;;;;;;;22.77;45.95;99963.59;4447258;32;35021;-63
2022/05/27 00:57:40;;;;;;;4.05;1.80;;;;;;;22.78;46.08;99957.94;4449669;32;32716;-63
2022/05/27 01:00:12;;;;;;;3.97;1.70;;;;;;;22.94;46.07;99965.13;4447402;32;33423;-66
2022/05/27 01:02:40;;;;;;;3.35;1.35;;;;;;;22.91;45.74;99965.47;4442770;32;33917;-64
2022/05/27 01:05:10;;;;;;;3.37;1.42;;;;;;;22.94;45.44;99956.94;4447219;32;35260;-64
2022/05/27 01:07:38;;;;;;;2.58;1.50;;;;;;;22.94;45.54;99967.00;4442023;32;34247;-64
2022/05/27 01:10:09;;;;;;;2.83;1.55;;;;;;;22.92;45.62;99967.19;4448049;32;33309;-66
2022/05/27 01:12:47;;;;;;;3.33;1.80;;;;;;;22.90;45.75;99962.94;4444677;32;34939;-66
2022/05/27 01:15:18;;;;;;;3.50;1.70;;;;;;;22.85;45.99;99968.94;4448294;32;36026;-65
2022/05/27 01:18:16;;;;;;;4.32;1.60;;;;;;;22.91;45.98;99964.63;4450983;32;32397;-65
2022/05/27 01:20:50;;;;;;;3.58;1.55;;;;;;;22.96;45.83;99964.94;4449966;32;33288;-66
2022/05/27 01:23:39;;;;;;;3.55;1.80;;;;;;;22.87;46.08;99961.44;4451593;32;32478;-63
2022/05/27 01:26:22;;;;;;;3.47;1.70;;;;;;;22.84;45.85;99966.44;4444839;32;33811;-67
2022/05/27 01:28:53;;;;;;;3.17;1.73;;;;;;;22.82;46.06;99960.31;4443521;32;34448;-66
2022/05/27 01:31:50;;;;;;;2.58;1.15;;;;;;;22.83;46.42;99959.28;4437118;32;32117;-68
2022/05/27 01:34:23;;;;;;;4.28;2.08;;;;;;;22.73;46.63;99954.97;4441118;32;32521;-65
2022/05/27 01:37:05;;;;;;;4.10;1.80;;;;;;;22.65;46.37;99960.50;4452122;32;34475;-67
2022/05/27 01:39:54;;;;;;;3.75;1.70;;;;;;;22.78;46.16;99951.66;4443516;32;32643;-63
2022/05/27 01:43:00;;;;;;;3.17;1.67;;;;;;;22.85;46.12;99951.75;4449411;32;33059;-64
2022/05/27 01:45:40;;;;;;;4.43;1.67;;;;;;;22.79;46.29;99948.75;4449702;32;33327;-64
2022/05/27 01:48:13;;;;;;;1.83;1.27;;;;;;;22.84;46.38;99950.06;4452144;32;33977;-63
2022/05/27 01:50:46;;;;;;;3.40;1.65;;;;;;;22.81;46.14;99943.09;4450237;32;33507;-64
2022/05/27 01:53:13;;;;;;;3.65;2.03;;;;;;;22.79;46.31;99939.69;4449692;32;32109;-64
2022/05/27 01:55:46;;;;;;;2.72;1.40;;;;;;;22.78;46.35;99947.03;4447866;32;34403;-63
2022/05/27 01:58:18;;;;;;;5.05;1.77;;;;;;;22.76;46.56;99950.97;4440019;32;32730;-64
2022/05/27 02:00:47;;;;;;;2.97;1.50;;;;;;;22.75;46.52;99941.09;4441515;32;33355;-64
2022/05/27 02:03:23;;;;;;;3.20;1.55;;;;;;;22.73;46.67;99948.66;4442318;32;33369;-66
2022/05/27 02:05:53;;;;;;;3.10;1.70;;;;;;;22.78;46.34;99938.84;4458400;32;33725;-66
2022/05/27 02:08:41;;;;;;;5.05;1.92;;;;;;;22.73;46.48;99944.03;4452566;32;35266;-63
2022/05/27 02:11:13;;;;;;;3.58;1.42;;;;;;;22.71;46.55;99939.81;4448340;32;33893;-64
2022/05/27 02:14:05;;;;;;;2.97;1.60;;;;;;;22.72;46.35;99933.31;4448495;32;33535;-63
2022/05/27 02:16:39;;;;;;;3.92;1.60;;;;;;;22.75;46.77;99941.09;4438557;32;34640;-62
2022/05/27 02:19:25;;;;;;;4.45;1.98;;;;;;;22.80;46.43;99935.94;4448801;32;33969;-64
2022/05/27 02:21:58;;;;;;;2.62;1.40;;;;;;;22.70;46.42;99938.13;4449087;32;33910;-64
2022/05/27 02:24:37;;;;;;;3.85;1.73;;;;;;;22.69;46.47;99942.69;4439766;32;31829;-64
2022/05/27 02:27:09;;;;;;;4.95;1.80;;;;;;;22.65;46.88;99943.28;4435749;32;32723;-67
2022/05/27 02:29:38;;;;;;;3.00;1.60;;;;;;;22.72;46.91;99950.50;4439141;32;33701;-67
2022/05/27 02:32:10;;;;;;;3.97;1.73;;;;;;;22.67;46.96;99952.97;4440016;32;34568;-66
2022/05/27 02:35:08;;;;;;;4.00;2.03;;;;;;;22.55;47.13;99949.84;4441294;32;32682;-68
2022/05/27 02:37:42;;;;;;;3.70;1.87;;;;;;;22.53;47.21;99946.47;4435715;32;34694;-65
2022/05/27 02:40:14;;;;;;;5.18;1.83;;;;;;;22.43;47.57;99942.31;4447178;32;34011;-65
2022/05/27 02:43:00;;;;;;;5.78;2.25;;;;;;;22.28;47.93;99943.16;4444328;32;33495;-66
2022/05/27 02:45:31;;;;;;;6.43;2.28;;;;;;;22.35;47.92;99951.44;4441007;32;32922;-67
2022/05/27 02:48:12;;;;;;;5.07;2.40;;;;;;;22.31;48.01;99942.81;4447859;32;33326;-65
2022/05/27 02:50:45;;;;;;;2.92;1.77;;;;;;;22.32;47.95;99943.62;4446430;32;35752;-64
2022/05/27 02:53:35;;;;;;;4.15;1.85;;;;;;;22.20;48.48;99942.41;4447332;32;33352;-64
2022/05/27 02:56:14;;;;;;;5.87;2.12;;;;;;;22.08;48.61;99944.69;4435153;32;33755;-63
2022/05/27 02:58:42;;;;;;;3.78;1.67;;;;;;;22.12;48.38;99936.97;4439381;32;33494;-64
2022/05/27 03:01:10;;;;;;;4.00;1.77;;;;;;;22.15;48.32;99939.34;4443696;32;34910;-64
2022/05/27 03:03:38;;;;;;;2.78;1.58;;;;;;;22.11;48.36;99944.31;4445301;32;33752;-63
2022/05/27 03:06:24;;;;;;;2.50;1.45;;;;;;;22.06;48.46;99944.03;4449740;32;33347;-65
2022/05/27 03:09:07;;;;;;;3.78;1.80;;;;;;;22.06;48.40;99952.22;4449259;32;32256;-67
2022/05/27 03:11:41;;;;;;;4.40;1.87;;;;;;;22.02;48.49;99950.84;4446650;32;33743;-66
2022/05/27 03:14:15;;;;;;;3.95;1.70;;;;;;;21.94;48.80;99946.34;4445047;32;33646;-64
2022/05/27 03:16:55;;;;;;;3.42;1.73;;;;;;;21.85;49.03;99948.28;4442596;32;35228;-63
2022/05/27 03:19:40;;;;;;;3.92;1.70;;;;;;;21.82;49.18;99953.25;4443055;32;32656;-64
2022/05/27 03:22:36;;;;;;;2.60;1.67;;;;;;;21.85;49.23;99961.06;4439061;32;34963;-64
2022/05/27 03:25:16;;;;;;;3.65;1.77;;;;;;;21.82;49.18;99959.53;4441190;32;33710;-66
2022/05/27 03:27:53;;;;;;;3.08;1.62;;;;;;;21.87;49.09;99961.72;4440598;32;33339;-66
2022/05/27 03:30:25;;;;;;;3.53;1.62;;;;;;;21.92;48.73;99958.44;4444642;32;33564;-67
2022/05/27 03:33:04;;;;;;;3.15;1.62;;;;;;;21.99;48.48;99953.94;4445338;32;33350;-65
2022/05/27 03:35:40;;;;;;;3.28;1.73;;;;;;;22.03;48.46;99953.41;4446806;32;33651;-66
2022/05/27 03:38:18;;;;;;;3.83;1.52;;;;;;;22.03;48.48;99953.41;4449470;32;33508;-67
2022/05/27 03:41:09;;;;;;;3.37;1.62;;;;;;;22.10;48.23;99959.81;4447195;32;34934;-67
2022/05/27 03:43:37;;;;;;;3.65;1.50;;;;;;;21.80;49.03;99958.06;4442688;32;33713;-66
2022/05/27 03:46:06;;;;;;;3.33;1.40;;;;;;;21.81;48.62;99959.75;4437619;32;33877;-67
2022/05/27 03:48:36;;;;;;;4.28;1.65;;;;;;;21.86;48.62;99958.16;4433601;32;33592;-68
2022/05/27 03:51:12;;;;;;;3.17;1.37;;;;;;;22.16;47.62;99962.87;4443458;32;34907;-67
2022/05/27 03:56:36;;;;;;;2.28;1.20;;;;;;;22.01;46.85;99960.91;4437314;32;33695;-64
2022/05/27 03:59:06;;;;;;;3.62;1.58;;;;;;;21.96;46.52;99960.63;4437742;32;32364;-64
2022/05/27 04:01:36;;;;;;;3.60;1.40;;;;;;;22.04;46.36;99959.72;4437048;32;32851;-65
2022/05/27 04:04:06;;;;;;;4.95;1.50;;;;;;;22.06;46.47;99968.56;4447094;32;33661;-65
2022/05/27 04:06:33;;;;;;;2.90;1.55;;;;;;;22.12;46.54;99965.09;4433824;32;35294;-65
2022/05/27 04:09:02;;;;;;;3.12;1.37;;;;;;;22.12;46.96;99954.19;4447545;32;34275;-64
2022/05/27 04:11:30;;;;;;;3.22;1.80;;;;;;;22.13;46.85;99957.78;4437327;32;33892;-67
2022/05/27 04:13:57;;;;;;;2.85;1.58;;;;;;;22.27;46.46;99956.97;4450031;32;34016;-65
2022/05/27 04:16:25;;;;;;;2.17;1.30;;;;;;;22.35;46.64;99961.53;4443702;32;33978;-66
2022/05/27 04:18:53;;;;;;;5.07;1.80;;;;;;;22.31;46.77;99961.88;4447676;32;33463;-66
2022/05/27 04:21:21;;;;;;;2.55;1.40;;;;;;;22.33;47.11;99958.97;4441027;32;33776;-65
2022/05/27 04:23:48;;;;;;;4.72;1.67;;;;;;;22.51;46.71;99959.47;4449197;32;33913;-65
2022/05/27 04:26:17;;;;;;;4.97;2.35;;;;;;;22.62;46.41;99954.56;4436438;32;33903;-64
2022/05/27 04:28:45;;;;;;;2.40;1.52;;;;;;;22.54;47.04;99966.44;4437697;32;34011;-66
2022/05/27 04:31:13;;;;;;;4.00;1.80;;;;;;;22.62;46.94;99958.13;4440730;32;33204;-65
2022/05/27 04:33:41;;;;;;;5.03;1.80;;;;;;;22.66;47.04;99964.91;4443634;32;33638;-65
2022/05/27 04:36:09;;;;;;;2.67;1.62;;;;;;;22.73;46.89;99962.31;4448858;32;34909;-67
2022/05/27 04:38:37;;;;;;;4.18;1.77;;;;;;;22.71;46.59;99958.91;4449359;32;32086;-67
2022/05/27 04:41:05;;;;;;;2.50;1.50;;;;;;;22.71;46.57;99957.00;4446507;32;33690;-65
2022/05/27 04:43:34;;;;;;;4.12;1.90;;;;;;;22.74;46.56;99953.91;4441107;32;35014;-65
2022/05/27 04:46:03;;;;;;;5.93;2.40;;;;;;;22.71;46.68;99953.44;4436233;32;32713;-68
2022/05/27 04:48:31;;;;;;;4.03;1.98;;;;;;;22.94;46.21;99965.13;4439525;32;33351;-66
2022/05/27 04:50:59;;;;;;;4.43;2.15;;;;;;;22.98;46.17;99954.66;4441758;32;33865;-67
2022/05/27 04:53:27;;;;;;;4.93;2.10;;;;;;;23.09;45.92;99942.44;4441211;32;33773;-67
2022/05/27 04:55:55;;;;;;;4.75;2.10;;;;;;;23.16;45.27;99943.34;4446451;32;34557;-64
2022/05/27 04:58:22;;;;;;;4.28;2.12;;;;;;;23.21;44.92;99951.81;4435677;32;33595;-66
2022/05/27 05:00:50;;;;;;;4.90;2.00;;;;;;;23.25;45.00;99953.13;4436777;32;33868;-65
2022/05/27 05:03:18;;;;;;;5.62;2.00;;;;;;;23.31;45.19;99951.53;4444452;32;32611;-67
2022/05/27 05:05:45;;;;;;;5.55;2.05;;;;;;;23.29;45.46;99953.59;4445409;32;32545;-64
2022/05/27 05:08:29;;;;;;;4.80;2.33;;;;;;;23.45;44.69;99954.19;4447497;32;32184;-67
2022/05/27 05:10:57;;;;;;;3.25;1.85;;;;;;;23.43;44.59;99956.25;4440505;32;33309;-69
2022/05/27 05:13:24;;;;;;;5.15;2.05;;;;;;;23.64;44.02;99954.63;4444918;32;35295;-66
2022/05/27 05:15:52;;;;;;;2.92;1.65;;;;;;;23.59;43.91;99951.59;4443371;32;33630;-71
2022/05/27 05:18:20;;;;;;;5.30;2.03;;;;;;;23.66;43.81;99949.81;4439699;32;34456;-67
2022/05/27 05:20:48;;;;;;;3.97;1.60;;;;;;;23.73;43.40;99945.28;4446119;32;34879;-65
2022/05/27 05:23:15;;;;;;;8.70;2.20;;;;;;;23.81;43.29;99952.50;4449692;32;35010;-66
2022/05/27 05:25:43;;;;;;;7.85;1.85;;;;;;;23.85;43.53;99953.78;4447028;32;33897;-65
2022/05/27 05:28:11;;;;;;;3.72;1.45;;;;;;;23.55;43.09;99958.50;4451157;32;34121;-65
2022/05/27 05:30:38;;;;;;;3.67;1.37;;;;;;;23.81;41.92;99941.56;4450539;32;32768;-65
2022/05/27 05:33:06;;;;;;;2.62;1.10;;;;;;;23.53;43.19;99957.84;4449466;32;33842;-64
2022/05/27 05:35:34;;;;;;;5.00;2.22;;;;;;;23.86;43.29;99944.56;4442441;32;32963;-65
2022/05/27 05:38:03;;;;;;;4.22;1.30;;;;;;;23.95;43.54;99948.84;4442593;32;33170;-65
2022/05/27 05:40:31;;;;;;;2.42;1.37;;;;;;;23.87;41.81;99947.09;4449787;32;35110;-65
2022/05/27 05:43:01;;;;;;;2.97;1.52;;;;;;;24.02;41.29;99951.66;4444441;32;34020;-65
2022/05/27 05:45:29;;;;;;;5.85;1.50;;;;;;;24.03;40.75;99945.97;4450086;32;32778;-64
2022/05/27 05:47:57;;;;;;;4.12;1.40;;;;;;;23.86;41.43;99953.59;4449585;32;34713;-63
2022/05/27 05:50:24;;;;;;;3.60;1.40;;;;;;;24.09;41.48;99949.81;4439839;32;32346;-64
2022/05/27 05:52:52;;;;;;;3.15;1.33;;;;;;;24.10;41.99;99951.50;4447466;32;34023;-64
2022/05/27 05:55:20;;;;;;;3.83;1.30;;;;;;;24.08;41.53;99948.13;4448929;32;34893;-66
2022/05/27 05:57:49;;;;;;;3.67;1.27;;;;;;;23.78;39.58;99950.16;4450024;32;33585;-65
2022/05/27 06:00:21;;;;;;;2.95;1.02;;;;;;;23.89;39.24;99947.75;4450549;32;32508;-65
2022/05/27 06:02:49;;;;;;;3.15;1.20;;;;;;;23.82;39.61;99948.72;4443827;32;32735;-65
2022/05/27 06:05:17;;;;;;;3.47;1.45;;;;;;;23.31;39.63;99955.09;4447246;32;33457;-64
2022/05/27 06:07:45;;;;;;;6.20;1.42;;;;;;;23.89;38.99;99942.28;4445497;32;33444;-63
2022/05/27 06:10:15;;;;;;;4.85;1.20;;;;;;;24.05;39.03;99949.38;4446564;32;34494;-66
2022/05/27 06:12:43;;;;;;;3.83;1.00;;;;;;;23.44;40.41;99955.25;4441943;32;34416;-65
2022/05/27 06:15:20;;;;;;;3.53;1.15;;;;;;;23.72;39.32;99949.03;4440850;32;32532;-66
2022/05/27 06:17:47;;;;;;;3.62;1.20;;;;;;;23.60;38.61;99956.91;4435850;32;33616;-66
2022/05/27 06:20:15;;;;;;;5.18;1.27;;;;;;;23.80;38.71;99946.19;4445918;32;32194;-65
2022/05/27 06:22:43;;;;;;;3.60;1.25;;;;;;;23.87;38.29;99952.56;4449061;32;33960;-66
2022/05/27 06:25:11;;;;;;;2.35;0.90;;;;;;;23.89;38.96;99953.22;4449027;32;34857;-64
2022/05/27 06:27:39;;;;;;;6.47;1.40;;;;;;;24.02;37.79;99955.22;4441655;32;34084;-66
2022/05/27 06:35:25;;;;;;;3.25;1.55;;;;;;;24.13;37.74;99942.88;4444289;32;34134;-64
2022/05/27 06:37:52;;;;;;;6.65;1.30;;;;;;;24.24;36.72;99949.69;4446390;32;34432;-66
2022/05/27 06:40:20;;;;;;;1.20;0.82;;;;;;;23.54;36.15;99954.94;4443743;32;32381;-65
2022/05/27 06:42:48;;;;;;;2.28;0.75;;;;;;;23.73;34.79;99949.91;4440472;32;35357;-66
2022/05/27 06:45:16;;;;;;;2.37;0.90;;;;;;;22.96;35.68;99954.03;4447038;32;33664;-66
2022/05/27 06:47:43;;;;;;;1.23;0.70;;;;;;;23.11;36.60;99948.53;4449663;32;31265;-65
2022/05/27 06:50:11;;;;;;;2.40;0.65;;;;;;;23.26;36.58;99943.91;4450297;32;32702;-63
2022/05/27 06:52:40;;;;;;;3.20;1.00;;;;;;;23.45;36.01;99937.81;4447657;32;33965;-63
2022/05/27 06:55:10;;;;;;;3.85;1.00;;;;;;;23.37;36.96;99937.94;4442891;32;33816;-63
2022/05/27 06:57:38;;;;;;;4.40;1.12;;;;;;;23.72;35.80;99932.63;4442653;32;32595;-64
2022/05/27 07:00:08;;;;;;;2.17;0.88;;;;;;;24.14;36.18;99930.91;4444031;32;33222;-66
2022/05/27 07:02:36;;;;;;;2.08;1.00;;;;;;;23.46;36.36;99931.28;4446733;32;35010;-65
2022/05/27 07:05:04;;;;;;;3.15;1.02;;;;;;;23.75;36.15;99928.69;4447477;32;33735;-64
2022/05/27 07:07:32;;;;;;;1.65;0.77;;;;;;;23.85;37.02;99935.53;4438309;32;31530;-65
2022/05/27 07:10:00;;;;;;;3.17;1.00;;;;;;;23.73;36.27;99928.88;4447858;32;32531;-63
2022/05/27 07:12:27;;;;;;;3.20;0.98;;;;;;;24.04;36.80;99933.13;4446232;32;34129;-63
2022/05/27 07:14:55;;;;;;;4.65;1.35;;;;;;;24.08;36.44;99931.72;4446723;32;32732;-66
2022/05/27 07:17:23;;;;;;;2.12;1.02;;;;;;;24.04;36.76;99924.94;4449429;32;33496;-65
2022/05/27 07:19:51;;;;;;;2.78;1.02;;;;;;;24.03;36.69;99920.53;4442922;32;34821;-63
2022/05/27 07:22:19;;;;;;;3.03;1.23;;;;;;;24.29;35.55;99926.19;4440508;32;34018;-64
2022/05/27 07:24:47;;;;;;;1.75;1.10;;;;;;;24.26;36.33;99920.28;4433876;32;34441;-63
2022/05/27 07:27:15;;;;;;;4.62;1.08;;;;;;;24.02;37.07;99919.69;4437325;32;33130;-64
2022/05/27 07:29:42;;;;;;;2.28;1.15;;;;;;;24.08;37.06;99915.31;4440825;32;135069;-64
2022/05/27 07:32:10;;;;;;;2.00;0.73;;;;;;;23.79;37.20;99916.31;4442982;32;33788;-64
2022/05/27 07:34:39;;;;;;;2.20;1.08;;;;;;;24.00;37.30;99918.19;4449257;32;32608;-63
2022/05/27 07:37:06;;;;;;;5.55;1.05;;;;;;;24.06;37.00;99911.94;4438897;32;34394;-65
2022/05/27 07:39:34;;;;;;;8.52;1.15;;;;;;;24.20;37.55;99908.22;4436863;32;34892;-65
2022/05/27 07:42:02;;;;;;;2.20;1.00;;;;;;;24.13;36.60;99910.91;4448427;32;34162;-64
2022/05/27 07:44:29;;;;;;;3.58;1.12;;;;;;;24.40;38.22;99906.50;4438621;32;33746;-64
2022/05/27 07:46:57;;;;;;;3.45;1.50;;;;;;;24.26;38.12;99909.34;4447318;32;32048;-65
2022/05/27 07:49:25;;;;;;;2.62;1.10;;;;;;;23.93;38.22;99912.66;4449343;32;35022;-64
2022/05/27 07:52:02;;;;;;;2.67;1.00;;;;;;;24.19;39.14;99917.50;4446841;32;34893;-63
2022/05/27 07:54:30;;;;;;;3.22;1.30;;;;;;;24.28;37.06;99899.06;4442939;32;33914;-63
2022/05/27 07:56:58;;;;;;;2.28;1.00;;;;;;;24.08;37.94;99904.38;4445015;32;34296;-64
2022/05/27 07:59:26;;;;;;;3.22;1.20;;;;;;;23.82;38.56;99899.50;4439579;32;33966;-65
2022/05/27 08:01:54;;;;;;;1.73;0.90;;;;;;;23.96;37.48;99900.50;4447979;32;33783;-64
2022/05/27 08:04:22;;;;;;;5.25;1.10;;;;;;;23.68;38.54;99896.66;4449184;32;33834;-64
2022/05/27 08:06:49;;;;;;;4.30;1.10;;;;;;;24.31;37.99;99887.72;4448527;32;33229;-64
2022/05/27 08:09:17;;;;;;;3.42;1.45;;;;;;;24.39;37.46;99891.09;4450258;32;33687;-63
2022/05/27 08:11:45;;;;;;;2.10;1.00;;;;;;;23.96;38.67;99895.88;4449609;32;34135;-64
2022/05/27 08:14:12;;;;;;;2.12;1.05;;;;;;;24.36;38.20;99888.78;4452488;32;35129;-64
2022/05/27 08:16:41;;;;;;;3.12;1.23;;;;;;;24.51;37.46;99883.22;4447489;32;32178;-67
2022/05/27 08:19:09;;;;;;;2.80;0.95;;;;;;;24.40;37.98;99887.34;4451730;32;33973;-63
2022/05/27 08:21:37;;;;;;;2.70;1.23;;;;;;;24.49;38.03;99887.19;4453664;32;32942;-63
2022/05/27 08:24:08;;;;;;;3.05;1.10;;;;;;;24.56;37.86;99888.13;4454941;32;34992;-63
2022/05/27 08:26:38;;;;;;;5.40;1.10;;;;;;;24.75;38.19;99879.16;4449363;32;33336;-64
2022/05/27 08:29:06;;;;;;;5.25;1.10;;;;;;;24.64;37.06;99880.56;4444153;32;33971;-66
2022/05/27 08:31:35;;;;;;;3.60;1.02;;;;;;;24.61;37.64;99875.50;4449202;32;35192;-63
2022/05/27 08:39:38;;;;;;;2.42;1.08;;;;;;;25.13;36.77;99875.94;4439633;32;33773;-67
2022/05/27 08:42:15;;;;;;;6.43;1.70;;;;;;;24.68;37.79;99877.41;4438909;32;32525;-65
2022/05/27 08:44:49;;;;;;;3.65;1.12;;;;;;;24.66;37.63;99880.38;4450222;32;32563;-63
2022/05/27 08:47:37;;;;;;;4.03;1.30;;;;;;;24.63;37.66;99870.66;4443839;32;33850;-64
2022/05/27 08:50:39;;;;;;;3.10;1.40;;;;;;;24.86;37.48;99870.34;4447226;32;33848;-64
2022/05/27 08:53:45;;;;;;;3.87;1.15;;;;;;;25.19;36.71;99863.31;4438985;32;34163;-64
2022/05/27 08:59:40;;;;;;;2.33;1.20;;;;;;;25.07;37.15;99854.81;4453122;32;33996;-64
2022/05/27 09:02:12;;;;;;;2.83;1.37;;;;;;;25.25;37.02;99863.31;4445320;32;33770;-64
2022/05/27 09:04:50;;;;;;;12.63;1.20;;;;;;;25.82;36.34;99849.31;4443874;32;32847;-64
2022/05/27 09:07:59;;;;;;;2.75;1.00;;;;;;;26.07;35.39;99852.22;4452083;32;34898;-64
2022/05/27 09:10:52;;;;;;;3.90;1.20;;;;;;;25.98;35.73;99846.13;4442254;32;32013;-66
2022/05/27 09:13:22;;;;;;;8.10;1.75;;;;;;;25.82;35.06;99843.81;4453989;32;33760;-64
2022/05/27 09:15:56;;;;;;;3.65;1.33;;;;;;;25.85;34.83;99851.63;4450162;32;33862;-66
2022/05/27 09:18:38;;;;;;;4.47;1.40;;;;;;;26.11;34.82;99851.59;4451518;32;32788;-65
2022/05/27 09:21:51;;;;;;;4.97;1.33;;;;;;;26.01;35.45;99842.97;4449362;32;34596;-64
2022/05/27 09:24:34;;;;;;;2.85;1.10;;;;;;;25.93;34.78;99827.56;4450145;32;34431;-80
2022/05/27 09:27:09;;;;;;;3.80;1.27;;;;;;;26.15;35.16;99825.41;4448956;32;32722;-66
2022/05/27 09:30:10;;;;;;;3.37;1.10;;;;;;;26.35;34.54;99824.53;4446993;32;33847;-68
2022/05/27 09:32:47;;;;;;;1.85;0.90;;;;;;;26.22;33.00;99823.50;4438726;32;32026;-68
2022/05/27 09:35:18;;;;;;;4.12;1.12;;;;;;;25.56;34.92;99829.88;4439184;32;33433;-67
2022/05/27 09:38:07;;;;;;;3.03;1.30;;;;;;;25.68;34.50;99821.88;4446903;32;34183;-67
2022/05/27 09:40:54;;;;;;;3.97;1.10;;;;;;;25.72;34.34;99819.53;4439482;32;33668;-68
2022/05/27 09:43:28;;;;;;;1.20;0.80;;;;;;;26.45;34.28;99813.94;4450678;32;32885;-66
2022/05/27 09:46:02;;;;;;;1.83;0.85;;;;;;;26.38;34.32;99818.59;4436194;32;33859;-64
2022/05/27 09:48:29;;;;;;;1.70;0.90;;;;;;;26.19;32.91;99806.62;4445368;32;34193;-66
2022/05/27 09:51:00;;;;;;;3.67;1.00;;;;;;;26.35;33.78;99810.81;4443249;32;35636;-66
2022/05/27 09:53:31;;;;;;;3.08;1.35;;;;;;;26.42;33.72;99800.63;4446553;32;33295;-67
2022/05/27 09:56:06;;;;;;;2.83;1.20;;;;;;;26.38;34.24;99797.50;4444836;32;33822;-66
2022/05/27 09:58:40;;;;;;;4.00;1.40;;;;;;;26.44;34.10;99784.81;4443429;32;32836;-66
2022/05/27 10:01:27;;;;;;;1.17;0.80;;;;;;;26.69;33.15;99776.72;4446676;32;35165;-67
2022/05/27 10:04:02;;;;;;;2.35;1.00;;;;;;;26.92;33.92;99790.72;4449937;32;33212;-66
2022/05/27 10:06:30;;;;;;;;;;;;;;;26.88;33.54;99788.66;4443789;32;32706;-65
2022/05/27 10:09:00;;;;;;;3.45;0.93;;;;;;;27.23;32.79;99785.50;4450012;32;35084;-66
2022/05/27 10:11:28;;;;;;;3.17;0.95;;;;;;;27.00;32.50;99781.41;4463303;32;34592;-65
2022/05/27 10:14:18;;;;;;;2.47;1.15;;;;;;;26.99;33.32;99785.19;4445304;32;32312;-65
2022/05/27 10:17:10;;;;;;;1.77;1.10;;;;;;;27.13;33.55;99773.09;4447397;32;34015;-67
2022/05/27 10:19:45;;;;;;;3.10;1.00;;;;;;;26.85;34.07;99778.94;4449068;32;33737;-64
2022/05/27 10:22:26;;;;;;;3.85;1.20;;;;;;;27.10;32.75;99768.03;4439724;32;32587;-66
2022/05/27 10:25:00;;;;;;;1.50;0.82;;;;;;;26.56;33.25;99758.41;4438505;32;32854;-65
2022/05/27 10:27:37;;;;;;;3.12;0.90;;;;;;;27.26;33.56;99752.09;4437533;32;32547;-64
2022/05/27 10:30:21;;;;;;;1.98;1.08;;;;;;;27.39;33.18;99750.06;4444358;32;33801;-65
2022/05/27 10:32:49;;;;;;;2.78;0.77;;;;;;;27.21;32.36;99746.41;4445557;32;34948;-65
2022/05/27 10:35:20;;;;;;;2.03;1.02;;;;;;;27.53;33.20;99734.28;4442046;32;35008;-64
2022/05/27 10:38:09;;;;;;;4.03;1.23;;;;;;;27.73;32.79;99738.75;4440842;32;32773;-64
2022/05/27 10:40:50;;;;;;;3.85;0.98;;;;;;;27.99;30.99;99733.00;4442267;32;34074;-62
2022/05/27 10:43:45;;;;;;;4.82;1.15;;;;;;;27.79;31.83;99730.47;4445065;32;32765;-63
2022/05/27 10:46:15;;;;;;;3.12;1.10;;;;;;;28.62;31.24;99729.09;4446594;32;33664;-61
2022/05/27 10:48:58;;;;;;;4.68;0.98;;;;;;;28.12;31.47;99722.91;4447670;32;34504;-63
2022/05/27 10:51:52;;;;;;;3.53;1.08;;;;;;;28.30;30.89;99718.25;4438905;32;33660;-62
2022/05/27 10:54:44;;;;;;;1.62;0.90;;;;;;;28.60;30.33;99722.12;4432681;32;35330;-62
2022/05/27 11:03:56;;;;;;;2.30;1.10;;;;;;;28.42;31.34;99698.25;4442275;32;34763;-61
2022/05/27 11:06:52;;;;;;;3.45;1.10;;;;;;;28.27;31.09;99693.09;4398165;32;33792;-63
2022/05/27 11:09:33;;;;;;;5.53;1.25;;;;;;;28.91;30.74;99688.00;4436887;32;32783;-62
2022/05/27 11:12:24;;;;;;;3.33;1.00;;;;;;;28.40;32.26;99678.38;4434298;32;33249;-63
2022/05/27 11:15:12;;;;;;;2.92;1.12;;;;;;;28.62;30.74;99673.19;4437035;32;33841;-61
2022/05/27 11:18:05;;;;;;;3.78;1.17;;;;;;;28.43;31.16;99662.22;4443400;32;33979;-62
2022/05/27 11:20:41;;;;;;;3.08;0.82;;;;;;;28.65;30.87;99669.97;4440682;32;33572;-64
2022/05/27 11:23:53;;;;;;;2.50;1.12;;;;;;;28.41;31.24;99664.38;4445562;32;34690;-62
2022/05/27 11:26:26;;;;;;;2.72;1.20;;;;;;;28.48;30.74;99665.13;4436822;32;35216;-62
2022/05/27 11:29:15;;;;;;;1.87;1.02;;;;;;;28.59;30.76;99652.47;4447371;32;33648;-63
2022/05/27 11:32:12;;;;;;;1.92;0.98;;;;;;;27.91;32.44;99641.72;4438576;32;34742;-63
2022/05/27 11:35:04;;;;;;;1.90;1.30;;;;;;;28.37;32.14;99645.75;4435955;32;33934;-63
2022/05/27 11:37:42;;;;;;;3.92;1.00;;;;;;;28.63;31.01;99636.31;4444055;32;33446;-66
2022/05/27 11:40:45;;;;;;;1.52;0.85;;;;;;;27.94;31.93;99636.59;4439200;32;33937;-65
2022/05/27 11:43:33;;;;;;;2.78;1.00;;;;;;;28.40;31.34;99637.91;4420596;32;33488;-64
2022/05/27 11:46:22;;;;;;;4.68;1.37;;;;;;;28.65;31.28;99626.75;4441538;32;32516;-64
2022/05/27 11:49:35;;;;;;;2.53;1.35;;;;;;;28.78;30.80;99617.44;4440034;32;35208;-63
2022/05/27 11:52:19;;;;;;;4.62;1.60;;;;;;;28.18;32.89;99617.44;4427267;32;33916;-65
2022/05/27 11:55:09;;;;;;;5.87;1.42;;;;;;;28.13;31.94;99611.81;4443649;32;32140;-63
2022/05/27 11:58:03;;;;;;;2.67;1.48;;;;;;;27.93;32.88;99610.19;4448089;32;32654;-66
2022/05/27 12:00:35;;;;;;;4.15;1.20;;;;;;;27.92;32.16;99602.97;4439481;32;35222;-65
2022/05/27 12:03:14;;;;;;;1.60;1.00;;;;;;;28.28;31.55;99598.47;4429253;32;32331;-65
2022/05/27 12:05:52;;;;;;;2.95;1.10;;;;;;;27.97;32.76;99592.13;4441398;32;33418;-65
2022/05/27 12:08:35;;;;;;;3.95;1.30;;;;;;;27.78;33.40;99590.47;4436652;32;34580;-65
2022/05/27 12:11:11;;;;;;;3.30;1.48;;;;;;;27.92;32.59;99578.22;4448381;32;32848;-66
2022/05/27 12:13:45;;;;;;;2.22;1.10;;;;;;;28.14;33.21;99574.97;4446318;32;34665;-65
2022/05/27 12:16:15;;;;;;;4.90;1.45;;;;;;;27.67;33.12;99577.44;4440223;32;33333;-65
2022/05/27 12:18:51;;;;;;;2.25;1.10;;;;;;;27.40;33.83;99581.34;4448229;32;33230;-66
2022/05/27 12:21:22;;;;;;;4.00;1.33;;;;;;;27.80;32.94;99577.31;4447471;32;35630;-65
2022/05/27 12:24:05;;;;;;;2.80;1.30;;;;;;;28.21;32.06;99571.03;4450082;32;32476;-65
2022/05/27 12:26:35;;;;;;;2.08;1.15;;;;;;;28.36;32.54;99570.62;4442683;32;33382;-65
2022/05/27 12:29:11;;;;;;;2.50;1.27;;;;;;;28.19;32.70;99564.94;4442700;32;32466;-67
2022/05/27 12:31:40;;;;;;;1.80;1.00;;;;;;;28.13;32.84;99554.88;4454466;32;32739;-65